createdAt,value
2018-09-26T00:00:10.882Z,10.37
2018-09-26T00:01:10.849Z,10.39
2018-09-26T00:02:10.776Z,10.39
2018-09-26T00:03:11.026Z,10.39
2018-09-26T00:04:11.311Z,10.4
2018-09-26T00:05:11.052Z,10.4
2018-09-26T00:06:10.959Z,10.4
2018-09-26T00:07:10.944Z,10.39
2018-09-26T00:08:10.755Z,10.39
2018-09-26T00:09:10.983Z,10.36
2018-09-26T00:10:10.943Z,10.35
2018-09-26T00:11:10.969Z,10.35
2018-09-26T00:12:11.080Z,10.34
2018-09-26T00:13:10.922Z,10.35
2018-09-26T00:14:10.817Z,10.34
2018-09-26T00:15:10.866Z,10.35
2018-09-26T00:16:10.916Z,10.33
2018-09-26T00:17:10.933Z,10.32
2018-09-26T00:18:11.185Z,10.3
2018-09-26T00:19:10.951Z,10.3
2018-09-26T00:20:10.752Z,10.28
2018-09-26T00:21:10.946Z,10.29
2018-09-26T00:22:11.006Z,10.3
2018-09-26T00:23:10.872Z,10.32
2018-09-26T00:24:10.869Z,10.28
2018-09-26T00:25:10.756Z,10.29
2018-09-26T00:26:10.962Z,10.32
2018-09-26T00:27:11.073Z,10.28
2018-09-26T00:28:10.809Z,10.27
2018-09-26T00:29:11.018Z,10.25
2018-09-26T00:30:11.105Z,10.25
2018-09-26T00:31:11.065Z,10.26
2018-09-26T00:32:11.031Z,10.26
2018-09-26T00:33:10.953Z,10.23
2018-09-26T00:34:10.768Z,10.24
2018-09-26T00:35:11.294Z,10.25
2018-09-26T00:36:13.558Z,10.22
2018-09-26T00:37:10.899Z,10.23
2018-09-26T00:38:11.127Z,10.23
2018-09-26T00:39:10.877Z,10.2
2018-09-26T00:40:10.906Z,10.19
2018-09-26T00:41:11.062Z,10.21
2018-09-26T00:42:11.206Z,10.2
2018-09-26T00:43:10.884Z,10.17
2018-09-26T00:44:10.875Z,10.16
2018-09-26T00:45:10.868Z,10.15
2018-09-26T00:46:10.884Z,10.15
2018-09-26T00:47:10.994Z,10.11
2018-09-26T00:48:10.865Z,10.09
2018-09-26T00:49:10.733Z,10.09
2018-09-26T00:50:10.719Z,10.08
2018-09-26T00:51:10.767Z,10.06
2018-09-26T00:52:10.787Z,10.01
2018-09-26T00:53:10.884Z,9.97
2018-09-26T00:54:10.899Z,9.97
2018-09-26T00:55:10.865Z,9.96
2018-09-26T00:56:10.935Z,9.97
2018-09-26T00:57:10.910Z,9.99
2018-09-26T00:58:11.007Z,9.95
2018-09-26T00:59:10.690Z,9.9
2018-09-26T01:00:10.926Z,9.91
2018-09-26T01:01:10.744Z,9.89
2018-09-26T01:02:10.726Z,9.89
2018-09-26T01:03:10.875Z,9.89
2018-09-26T01:04:10.725Z,9.9
2018-09-26T01:05:10.792Z,9.91
2018-09-26T01:06:11.160Z,9.92
2018-09-26T01:07:10.975Z,9.91
2018-09-26T01:08:10.738Z,9.92
2018-09-26T01:09:10.875Z,9.91
2018-09-26T01:10:10.811Z,9.91
2018-09-26T01:11:10.830Z,9.91
2018-09-26T01:12:10.948Z,9.91
2018-09-26T01:13:10.842Z,9.9
2018-09-26T01:14:10.898Z,9.91
2018-09-26T01:15:10.933Z,9.91
2018-09-26T01:16:10.680Z,9.91
2018-09-26T01:17:10.752Z,9.9
2018-09-26T01:18:10.673Z,9.9
2018-09-26T01:19:10.956Z,9.87
2018-09-26T01:20:10.963Z,9.86
2018-09-26T01:21:10.844Z,9.84
2018-09-26T01:22:10.875Z,9.85
2018-09-26T01:23:10.850Z,9.83
2018-09-26T01:24:11.006Z,9.85
2018-09-26T01:25:10.876Z,9.84
2018-09-26T01:26:10.702Z,9.84
2018-09-26T01:27:10.883Z,9.83
2018-09-26T01:28:10.696Z,9.82
2018-09-26T01:29:10.817Z,9.81
2018-09-26T01:30:10.706Z,9.81
2018-09-26T01:31:10.904Z,9.83
2018-09-26T01:32:10.809Z,9.8
2018-09-26T01:33:10.854Z,9.79
2018-09-26T01:34:10.832Z,9.79
2018-09-26T01:35:10.928Z,9.77
2018-09-26T01:36:10.885Z,9.76
2018-09-26T01:37:10.817Z,9.75
2018-09-26T01:38:10.867Z,9.76
2018-09-26T01:39:10.740Z,9.73
2018-09-26T01:40:10.778Z,9.75
2018-09-26T01:41:10.676Z,9.73
2018-09-26T01:42:10.863Z,9.69
2018-09-26T01:43:10.721Z,9.67
2018-09-26T01:44:10.924Z,9.67
2018-09-26T01:45:10.886Z,9.67
2018-09-26T01:46:10.791Z,9.65
2018-09-26T01:47:10.840Z,9.66
2018-09-26T01:48:11.116Z,9.64
2018-09-26T01:49:10.679Z,9.62
2018-09-26T01:50:10.923Z,9.63
2018-09-26T01:51:11.033Z,9.65
2018-09-26T01:52:11.112Z,9.65
2018-09-26T01:53:10.728Z,9.62
2018-09-26T01:54:10.663Z,9.65
2018-09-26T01:55:10.854Z,9.61
2018-09-26T01:56:10.949Z,9.6
2018-09-26T01:57:11.165Z,9.59
2018-09-26T01:58:10.686Z,9.55
2018-09-26T01:59:10.861Z,9.53
2018-09-26T02:00:10.592Z,9.52
2018-09-26T02:01:10.787Z,9.48
2018-09-26T02:02:10.772Z,9.49
2018-09-26T02:03:10.743Z,9.52
2018-09-26T02:04:10.607Z,9.47
2018-09-26T02:05:10.671Z,9.47
2018-09-26T02:06:10.626Z,9.48
2018-09-26T02:07:10.627Z,9.48
2018-09-26T02:08:10.788Z,9.47
2018-09-26T02:09:10.791Z,9.47
2018-09-26T02:10:10.772Z,9.42
2018-09-26T02:11:10.785Z,9.43
2018-09-26T02:12:10.780Z,9.43
2018-09-26T02:13:10.798Z,9.43
2018-09-26T02:14:10.620Z,9.46
2018-09-26T02:15:10.758Z,9.43
2018-09-26T02:16:10.628Z,9.41
2018-09-26T02:17:10.715Z,9.42
2018-09-26T02:18:10.776Z,9.42
2018-09-26T02:19:10.757Z,9.42
2018-09-26T02:20:10.777Z,9.42
2018-09-26T02:21:11.193Z,9.45
2018-09-26T02:22:10.795Z,9.42
2018-09-26T02:23:10.586Z,9.42
2018-09-26T02:24:10.994Z,9.42
2018-09-26T02:25:10.814Z,9.43
2018-09-26T02:26:10.812Z,9.39
2018-09-26T02:27:10.697Z,9.39
2018-09-26T02:28:10.837Z,9.36
2018-09-26T02:29:10.705Z,9.39
2018-09-26T02:30:10.802Z,9.39
2018-09-26T02:31:10.709Z,9.36
2018-09-26T02:32:10.953Z,9.36
2018-09-26T02:33:10.773Z,9.37
2018-09-26T02:34:11.047Z,9.37
2018-09-26T02:35:10.727Z,9.34
2018-09-26T02:36:10.760Z,9.33
2018-09-26T02:37:10.920Z,9.31
2018-09-26T02:38:10.799Z,9.3
2018-09-26T02:39:10.565Z,9.27
2018-09-26T02:40:10.579Z,9.24
2018-09-26T02:41:10.644Z,9.26
2018-09-26T02:42:10.735Z,9.26
2018-09-26T02:43:10.741Z,9.24
2018-09-26T02:44:10.878Z,9.23
2018-09-26T02:45:10.846Z,9.25
2018-09-26T02:46:10.810Z,9.24
2018-09-26T02:47:10.831Z,9.24
2018-09-26T02:48:10.868Z,9.26
2018-09-26T02:49:10.757Z,9.23
2018-09-26T02:50:11.166Z,9.25
2018-09-26T02:51:10.675Z,9.24
2018-09-26T02:52:10.829Z,9.22
2018-09-26T02:53:10.757Z,9.22
2018-09-26T02:54:10.763Z,9.22
2018-09-26T02:55:10.799Z,9.22
2018-09-26T02:56:10.600Z,9.21
2018-09-26T02:57:10.708Z,9.22
2018-09-26T02:58:10.710Z,9.23
2018-09-26T02:59:10.572Z,9.22
2018-09-26T03:00:10.826Z,9.24
2018-09-26T03:01:10.767Z,9.23
2018-09-26T03:02:10.761Z,9.23
2018-09-26T03:03:10.722Z,9.22
2018-09-26T03:04:10.779Z,9.22
2018-09-26T03:05:10.590Z,9.2
2018-09-26T03:06:10.622Z,9.17
2018-09-26T03:07:10.690Z,9.16
2018-09-26T03:08:10.768Z,9.16
2018-09-26T03:09:10.706Z,9.11
2018-09-26T03:10:10.693Z,9.1
2018-09-26T03:11:10.664Z,9.09
2018-09-26T03:12:10.660Z,9.07
2018-09-26T03:13:10.553Z,9.03
2018-09-26T03:14:10.859Z,9.04
2018-09-26T03:15:10.617Z,9.04
2018-09-26T03:16:10.730Z,9.04
2018-09-26T03:17:11.071Z,9.06
2018-09-26T03:18:11.360Z,9.04
2018-09-26T03:19:10.639Z,9.03
2018-09-26T03:20:10.618Z,9.01
2018-09-26T03:21:10.830Z,8.96
2018-09-26T03:22:10.671Z,8.96
2018-09-26T03:23:10.840Z,8.96
2018-09-26T03:24:10.695Z,8.96
2018-09-26T03:25:10.526Z,8.96
2018-09-26T03:26:10.775Z,9
2018-09-26T03:27:10.711Z,8.95
2018-09-26T03:28:10.661Z,8.96
2018-09-26T03:29:10.708Z,8.96
2018-09-26T03:30:10.860Z,8.96
2018-09-26T03:31:10.642Z,8.93
2018-09-26T03:32:10.694Z,8.92
2018-09-26T03:33:10.485Z,8.91
2018-09-26T03:34:10.963Z,8.91
2018-09-26T03:35:10.501Z,8.91
2018-09-26T03:36:10.698Z,8.92
2018-09-26T03:37:10.717Z,8.93
2018-09-26T03:38:10.567Z,8.85
2018-09-26T03:39:10.538Z,8.82
2018-09-26T03:40:10.673Z,8.8
2018-09-26T03:41:10.495Z,8.73
2018-09-26T03:42:10.486Z,8.71
2018-09-26T03:43:10.501Z,8.71
2018-09-26T03:44:10.651Z,8.68
2018-09-26T03:45:10.732Z,8.69
2018-09-26T03:46:11.092Z,8.68
2018-09-26T03:47:10.502Z,8.68
2018-09-26T03:48:10.815Z,8.69
2018-09-26T03:49:10.576Z,8.7
2018-09-26T03:50:10.635Z,8.69
2018-09-26T03:51:10.695Z,8.69
2018-09-26T03:52:10.638Z,8.68
2018-09-26T03:53:10.573Z,8.67
2018-09-26T03:54:10.574Z,8.7
2018-09-26T03:55:11.074Z,8.68
2018-09-26T03:56:10.623Z,8.68
2018-09-26T03:57:10.718Z,8.68
2018-09-26T03:58:10.663Z,8.7
2018-09-26T03:59:10.699Z,8.69
2018-09-26T04:00:10.797Z,8.66
2018-09-26T04:01:10.732Z,8.68
2018-09-26T04:02:10.481Z,8.68
2018-09-26T04:03:10.535Z,8.68
2018-09-26T04:04:10.650Z,8.66
2018-09-26T04:05:10.596Z,8.65
2018-09-26T04:06:10.575Z,8.66
2018-09-26T04:07:10.608Z,8.69
2018-09-26T04:08:10.531Z,8.67
2018-09-26T04:09:10.662Z,8.65
2018-09-26T04:10:10.674Z,8.65
2018-09-26T04:11:10.687Z,8.65
2018-09-26T04:12:10.710Z,8.68
2018-09-26T04:13:11.444Z,8.66
2018-09-26T04:14:10.684Z,8.68
2018-09-26T04:15:11.309Z,8.68
2018-09-26T04:16:10.680Z,8.68
2018-09-26T04:17:10.530Z,8.67
2018-09-26T04:18:10.692Z,8.65
2018-09-26T04:19:10.599Z,8.64
2018-09-26T04:20:10.814Z,8.64
2018-09-26T04:21:10.500Z,8.66
2018-09-26T04:22:10.716Z,8.68
2018-09-26T04:23:10.623Z,8.66
2018-09-26T04:24:10.559Z,8.65
2018-09-26T04:25:10.768Z,8.65
2018-09-26T04:26:11.397Z,8.66
2018-09-26T04:27:12.267Z,8.68
2018-09-26T04:28:10.659Z,8.7
2018-09-26T04:29:10.765Z,8.7
2018-09-26T04:30:10.574Z,8.7
2018-09-26T04:31:10.537Z,8.7
2018-09-26T04:32:10.648Z,8.73
2018-09-26T04:33:13.823Z,8.74
2018-09-26T04:34:10.647Z,8.75
2018-09-26T04:35:11.017Z,8.74
2018-09-26T04:36:10.881Z,8.73
2018-09-26T04:37:10.444Z,8.75
2018-09-26T04:38:10.628Z,8.76
2018-09-26T04:39:10.698Z,8.75
2018-09-26T04:40:10.539Z,8.76
2018-09-26T04:41:10.426Z,8.77
2018-09-26T04:42:10.684Z,8.76
2018-09-26T04:43:10.966Z,8.77
2018-09-26T04:44:10.421Z,8.75
2018-09-26T04:45:10.403Z,8.68
2018-09-26T04:46:10.542Z,8.68
2018-09-26T04:47:10.402Z,8.65
2018-09-26T04:48:10.532Z,8.68
2018-09-26T04:49:10.357Z,8.69
2018-09-26T04:50:10.548Z,8.68
2018-09-26T04:51:10.442Z,8.68
2018-09-26T04:52:10.364Z,8.69
2018-09-26T04:53:10.406Z,8.67
2018-09-26T04:54:10.602Z,8.68
2018-09-26T04:55:10.536Z,8.67
2018-09-26T04:56:10.798Z,8.64
2018-09-26T04:57:10.541Z,8.63
2018-09-26T04:58:11.052Z,8.62
2018-09-26T04:59:10.494Z,8.63
2018-09-26T05:00:10.514Z,8.63
2018-09-26T05:01:10.543Z,8.63
2018-09-26T05:02:10.371Z,8.59
2018-09-26T05:03:10.379Z,8.61
2018-09-26T05:04:10.356Z,8.58
2018-09-26T05:05:10.401Z,8.58
2018-09-26T05:06:10.694Z,8.58
2018-09-26T05:07:10.584Z,8.56
2018-09-26T05:08:11.050Z,8.56
2018-09-26T05:09:10.814Z,8.52
2018-09-26T05:10:10.538Z,8.53
2018-09-26T05:11:10.826Z,8.51
2018-09-26T05:12:10.556Z,8.5
2018-09-26T05:13:10.699Z,8.47
2018-09-26T05:14:10.561Z,8.5
2018-09-26T05:15:10.548Z,8.46
2018-09-26T05:16:10.608Z,8.46
2018-09-26T05:17:10.414Z,8.45
2018-09-26T05:18:10.466Z,8.46
2018-09-26T05:19:10.513Z,8.43
2018-09-26T05:20:10.461Z,8.44
2018-09-26T05:21:10.711Z,8.4
2018-09-26T05:22:10.525Z,8.39
2018-09-26T05:23:11.120Z,8.38
2018-09-26T05:24:10.517Z,8.38
2018-09-26T05:25:10.745Z,8.39
2018-09-26T05:26:10.644Z,8.36
2018-09-26T05:27:10.493Z,8.35
2018-09-26T05:28:10.320Z,8.34
2018-09-26T05:29:10.424Z,8.33
2018-09-26T05:30:10.692Z,8.33
2018-09-26T05:31:10.576Z,8.33
2018-09-26T05:32:10.667Z,8.34
2018-09-26T05:33:10.542Z,8.34
2018-09-26T05:34:10.486Z,8.35
2018-09-26T05:35:10.629Z,8.33
2018-09-26T05:36:10.477Z,8.33
2018-09-26T05:37:10.882Z,8.33
2018-09-26T05:38:10.329Z,8.35
2018-09-26T05:39:10.325Z,8.36
2018-09-26T05:40:10.950Z,8.34
2018-09-26T05:41:10.322Z,8.33
2018-09-26T05:42:10.446Z,8.35
2018-09-26T05:43:10.565Z,8.37
2018-09-26T05:44:10.585Z,8.37
2018-09-26T05:45:10.527Z,8.37
2018-09-26T05:46:10.635Z,8.39
2018-09-26T05:47:10.570Z,8.39
2018-09-26T05:48:10.560Z,8.42
2018-09-26T05:49:10.573Z,8.4
2018-09-26T05:50:10.669Z,8.41
2018-09-26T05:51:10.576Z,8.39
2018-09-26T05:52:10.367Z,8.42
2018-09-26T05:53:10.418Z,8.39
2018-09-26T05:54:10.612Z,8.4
2018-09-26T05:55:10.454Z,8.4
2018-09-26T05:56:10.735Z,8.42
2018-09-26T05:57:10.482Z,8.43
2018-09-26T05:58:10.329Z,8.43
2018-09-26T05:59:10.275Z,8.45
2018-09-26T06:00:10.601Z,8.47
2018-09-26T06:01:10.393Z,8.49
2018-09-26T06:02:10.511Z,8.48
2018-09-26T06:03:10.514Z,8.5
2018-09-26T06:04:10.382Z,8.52
2018-09-26T06:05:10.307Z,8.54
2018-09-26T06:06:10.425Z,8.56
2018-09-26T06:07:10.272Z,8.57
2018-09-26T06:08:10.483Z,8.61
2018-09-26T06:09:10.490Z,8.59
2018-09-26T06:10:10.613Z,8.59
2018-09-26T06:11:10.501Z,8.6
2018-09-26T06:12:10.436Z,8.6
2018-09-26T06:13:10.419Z,8.57
2018-09-26T06:14:10.449Z,8.55
2018-09-26T06:15:10.424Z,8.56
2018-09-26T06:16:10.331Z,8.57
2018-09-26T06:17:10.257Z,8.57
2018-09-26T06:18:10.401Z,8.58
2018-09-26T06:19:10.464Z,8.59
2018-09-26T06:20:10.451Z,8.59
2018-09-26T06:21:10.398Z,8.61
2018-09-26T06:22:10.409Z,8.63
2018-09-26T06:23:10.262Z,8.62
2018-09-26T06:24:10.410Z,8.62
2018-09-26T06:25:10.433Z,8.66
2018-09-26T06:26:10.535Z,8.61
2018-09-26T06:27:10.219Z,8.63
2018-09-26T06:28:11.774Z,8.63
2018-09-26T06:29:10.285Z,8.63
2018-09-26T06:30:10.221Z,8.67
2018-09-26T06:31:10.433Z,8.67
2018-09-26T06:32:10.259Z,8.67
2018-09-26T06:33:10.255Z,8.69
2018-09-26T06:34:10.498Z,8.7
2018-09-26T06:35:10.405Z,8.71
2018-09-26T06:36:10.286Z,8.73
2018-09-26T06:37:10.258Z,8.75
2018-09-26T06:38:10.304Z,8.76
2018-09-26T06:39:10.406Z,8.8
2018-09-26T06:40:10.363Z,8.8
2018-09-26T06:41:10.182Z,8.84
2018-09-26T06:42:10.378Z,8.83
2018-09-26T06:43:10.399Z,8.82
2018-09-26T06:44:10.228Z,8.82
2018-09-26T06:45:10.496Z,8.85
2018-09-26T06:46:10.436Z,8.8
2018-09-26T06:47:10.198Z,8.82
2018-09-26T06:48:10.539Z,8.86
2018-09-26T06:49:10.352Z,8.86
2018-09-26T06:50:10.344Z,8.91
2018-09-26T06:51:10.283Z,8.93
2018-09-26T06:52:10.441Z,8.96
2018-09-26T06:53:10.276Z,8.98
2018-09-26T06:54:11.327Z,9
2018-09-26T06:55:10.688Z,9.03
2018-09-26T06:56:10.849Z,9.05
2018-09-26T06:57:10.362Z,9.09
2018-09-26T06:58:10.394Z,9.1
2018-09-26T06:59:11.229Z,9.11
2018-09-26T07:00:10.620Z,9.13
2018-09-26T07:01:10.337Z,9.13
2018-09-26T07:02:10.202Z,9.17
2018-09-26T07:03:10.617Z,9.19
2018-09-26T07:04:10.269Z,9.23
2018-09-26T07:05:10.302Z,9.26
2018-09-26T07:06:10.744Z,9.27
2018-09-26T07:07:10.385Z,9.3
2018-09-26T07:08:10.222Z,9.31
2018-09-26T07:09:10.173Z,9.34
2018-09-26T07:10:10.234Z,9.37
2018-09-26T07:11:10.343Z,9.4
2018-09-26T07:12:10.882Z,9.44
2018-09-26T07:13:10.274Z,9.49
2018-09-26T07:14:10.365Z,9.51
2018-09-26T07:15:10.414Z,9.55
2018-09-26T07:16:10.322Z,9.58
2018-09-26T07:17:10.199Z,9.61
2018-09-26T07:18:10.252Z,9.63
2018-09-26T07:19:10.341Z,9.64
2018-09-26T07:20:10.163Z,9.65
2018-09-26T07:21:10.449Z,9.72
2018-09-26T07:22:10.480Z,9.73
2018-09-26T07:23:10.328Z,9.73
2018-09-26T07:24:10.387Z,9.75
2018-09-26T07:25:10.213Z,9.76
2018-09-26T07:26:10.319Z,9.8
2018-09-26T07:27:10.424Z,9.83
2018-09-26T07:28:10.412Z,9.86
2018-09-26T07:29:10.330Z,9.88
2018-09-26T07:30:10.304Z,9.92
2018-09-26T07:31:10.351Z,9.93
2018-09-26T07:32:10.654Z,9.96
2018-09-26T07:33:10.326Z,9.98
2018-09-26T07:34:10.160Z,9.98
2018-09-26T07:35:10.306Z,9.99
2018-09-26T07:36:10.316Z,10.04
2018-09-26T07:37:10.779Z,10.06
2018-09-26T07:38:10.144Z,10.09
2018-09-26T07:39:10.324Z,10.09
2018-09-26T07:40:10.172Z,10.13
2018-09-26T07:41:10.283Z,10.14
2018-09-26T07:42:10.126Z,10.16
2018-09-26T07:43:10.299Z,10.14
2018-09-26T07:44:10.345Z,10.17
2018-09-26T07:45:10.347Z,10.17
2018-09-26T07:46:10.155Z,10.18
2018-09-26T07:47:10.280Z,10.19
2018-09-26T07:48:10.300Z,10.21
2018-09-26T07:49:10.357Z,10.24
2018-09-26T07:50:10.311Z,10.25
2018-09-26T07:51:10.287Z,10.25
2018-09-26T07:52:10.128Z,10.27
2018-09-26T07:53:11.258Z,10.31
2018-09-26T07:54:10.344Z,10.31
2018-09-26T07:55:10.480Z,10.32
2018-09-26T07:56:10.479Z,10.36
2018-09-26T07:57:10.168Z,10.37
2018-09-26T07:58:10.342Z,10.42
2018-09-26T07:59:11.954Z,10.4
2018-09-26T08:00:10.223Z,10.46
2018-09-26T08:01:10.436Z,10.49
2018-09-26T08:02:10.392Z,10.53
2018-09-26T08:03:10.447Z,10.55
2018-09-26T08:04:10.442Z,10.53
2018-09-26T08:05:10.247Z,10.54
2018-09-26T08:06:10.292Z,10.59
2018-09-26T08:07:10.437Z,10.6
2018-09-26T08:08:10.479Z,10.6
2018-09-26T08:09:10.474Z,10.62
2018-09-26T08:10:10.419Z,10.69
2018-09-26T08:11:10.755Z,10.73
2018-09-26T08:12:10.317Z,10.76
2018-09-26T08:13:10.107Z,10.81
2018-09-26T08:14:10.151Z,10.86
2018-09-26T08:15:10.249Z,10.88
2018-09-26T08:16:10.315Z,10.9
2018-09-26T08:17:10.160Z,10.91
2018-09-26T08:18:10.859Z,10.93
2018-09-26T08:19:10.286Z,10.98
2018-09-26T08:20:10.329Z,11.01
2018-09-26T08:21:10.363Z,11.03
2018-09-26T08:22:10.330Z,11.04
2018-09-26T08:23:10.173Z,11.06
2018-09-26T08:24:12.022Z,11.06
2018-09-26T08:25:10.125Z,11.07
2018-09-26T08:26:10.225Z,11.05
2018-09-26T08:27:10.198Z,11.08
2018-09-26T08:28:10.508Z,11.06
2018-09-26T08:29:10.256Z,11.1
2018-09-26T08:30:11.523Z,11.12
2018-09-26T08:31:10.224Z,11.18
2018-09-26T08:32:10.136Z,11.24
2018-09-26T08:33:10.314Z,11.26
2018-09-26T08:34:10.370Z,11.3
2018-09-26T08:35:10.458Z,11.32
2018-09-26T08:36:10.342Z,11.39
2018-09-26T08:37:10.275Z,11.41
2018-09-26T08:38:10.274Z,11.43
2018-09-26T08:39:10.158Z,11.45
2018-09-26T08:40:10.282Z,11.49
2018-09-26T08:41:10.156Z,11.54
2018-09-26T08:42:10.303Z,11.6
2018-09-26T08:43:10.235Z,11.66
2018-09-26T08:44:10.268Z,11.69
2018-09-26T08:45:10.227Z,11.71
2018-09-26T08:46:10.144Z,11.75
2018-09-26T08:47:10.173Z,11.8
2018-09-26T08:48:10.321Z,11.86
2018-09-26T08:49:10.354Z,11.92
2018-09-26T08:50:10.023Z,11.96
2018-09-26T08:51:10.212Z,11.96
2018-09-26T08:52:10.193Z,11.92
2018-09-26T08:53:10.387Z,11.91
2018-09-26T08:54:10.241Z,11.9
2018-09-26T08:55:10.192Z,11.94
2018-09-26T08:56:10.184Z,11.92
2018-09-26T08:57:10.383Z,11.95
2018-09-26T08:58:10.138Z,11.95
2018-09-26T08:59:10.195Z,11.98
2018-09-26T09:00:10.262Z,12.05
2018-09-26T09:01:10.001Z,12.12
2018-09-26T09:02:10.021Z,12.14
2018-09-26T09:03:10.199Z,12.2
2018-09-26T09:04:10.029Z,12.25
2018-09-26T09:05:10.105Z,12.31
2018-09-26T09:06:10.668Z,12.36
2018-09-26T09:07:10.010Z,12.35
2018-09-26T09:08:10.030Z,12.4
2018-09-26T09:09:10.184Z,12.48
2018-09-26T09:10:10.106Z,12.56
2018-09-26T09:11:10.190Z,12.61
2018-09-26T09:12:10.391Z,12.65
2018-09-26T09:13:10.696Z,12.72
2018-09-26T09:14:10.725Z,12.8
2018-09-26T09:15:10.421Z,12.84
2018-09-26T09:16:10.852Z,12.88
2018-09-26T09:17:10.323Z,12.82
2018-09-26T09:18:10.421Z,12.88
2018-09-26T09:19:11.484Z,12.95
2018-09-26T09:20:10.776Z,12.99
2018-09-26T09:21:10.444Z,12.98
2018-09-26T09:22:10.450Z,13.02
2018-09-26T09:23:10.265Z,13.07
2018-09-26T09:24:10.383Z,13.11
2018-09-26T09:25:10.384Z,13.15
2018-09-26T09:26:10.825Z,13.21
2018-09-26T09:27:10.929Z,13.26
2018-09-26T09:28:10.292Z,13.25
2018-09-26T09:29:10.418Z,13.3
2018-09-26T09:30:10.420Z,13.24
2018-09-26T09:31:10.118Z,13.29
2018-09-26T09:32:10.947Z,13.37
2018-09-26T09:33:10.448Z,13.41
2018-09-26T09:34:10.704Z,13.45
2018-09-26T09:35:09.994Z,13.45
2018-09-26T09:36:10.333Z,13.46
2018-09-26T09:37:10.241Z,13.42
2018-09-26T09:38:10.578Z,13.37
2018-09-26T09:39:10.158Z,13.31
2018-09-26T09:40:10.287Z,13.29
2018-09-26T09:41:10.397Z,13.35
2018-09-26T09:42:11.346Z,13.43
2018-09-26T09:43:10.390Z,13.47
2018-09-26T09:44:11.767Z,13.51
2018-09-26T09:45:10.331Z,13.5
2018-09-26T09:46:10.110Z,13.55
2018-09-26T09:47:10.128Z,13.6
2018-09-26T09:48:10.320Z,13.6
2018-09-26T09:49:10.135Z,13.59
2018-09-26T09:50:10.675Z,13.54
2018-09-26T09:51:10.358Z,13.54
2018-09-26T09:52:10.216Z,13.55
2018-09-26T09:53:09.936Z,13.57
2018-09-26T09:54:10.274Z,13.55
2018-09-26T09:55:10.269Z,13.57
2018-09-26T09:56:10.604Z,13.62
2018-09-26T09:57:10.399Z,13.6
2018-09-26T09:58:10.415Z,13.62
2018-09-26T09:59:10.310Z,13.6
2018-09-26T10:00:11.053Z,13.67
2018-09-26T10:01:10.118Z,13.71
2018-09-26T10:02:10.595Z,13.75
2018-09-26T10:03:11.357Z,13.81
2018-09-26T10:04:10.272Z,13.86
2018-09-26T10:05:10.120Z,13.94
2018-09-26T10:06:10.146Z,13.99
2018-09-26T10:07:10.190Z,14.02
2018-09-26T10:08:10.830Z,14.04
2018-09-26T10:09:10.379Z,14.1
2018-09-26T10:10:10.419Z,14.17
2018-09-26T10:11:10.078Z,14.24
2018-09-26T10:12:12.462Z,14.28
2018-09-26T10:13:10.187Z,14.3
2018-09-26T10:14:11.288Z,14.28
2018-09-26T10:15:10.318Z,14.29
2018-09-26T10:16:10.338Z,14.28
2018-09-26T10:17:09.914Z,14.07
2018-09-26T10:18:10.372Z,14.03
2018-09-26T10:19:09.972Z,14.09
2018-09-26T10:20:10.342Z,14.16
2018-09-26T10:21:10.094Z,14.22
2018-09-26T10:22:10.088Z,14.3
2018-09-26T10:23:10.295Z,14.37
2018-09-26T10:24:10.382Z,14.45
2018-09-26T10:25:11.109Z,14.49
2018-09-26T10:26:10.689Z,14.49
2018-09-26T10:27:10.367Z,14.55
2018-09-26T10:28:10.101Z,14.59
2018-09-26T10:29:10.041Z,14.61
2018-09-26T10:30:10.115Z,14.62
2018-09-26T10:31:10.109Z,14.64
2018-09-26T10:32:10.381Z,14.68
2018-09-26T10:33:10.360Z,14.73
2018-09-26T10:34:10.142Z,14.73
2018-09-26T10:35:10.190Z,14.79
2018-09-26T10:36:09.947Z,14.84
2018-09-26T10:37:10.297Z,14.86
2018-09-26T10:38:10.689Z,14.88
2018-09-26T10:39:10.280Z,14.87
2018-09-26T10:40:10.789Z,14.86
2018-09-26T10:41:09.911Z,14.87
2018-09-26T10:42:10.156Z,14.91
2018-09-26T10:43:10.178Z,14.9
2018-09-26T10:44:10.229Z,14.83
2018-09-26T10:45:10.427Z,14.8
2018-09-26T10:46:10.090Z,14.77
2018-09-26T10:47:10.028Z,14.78
2018-09-26T10:48:10.324Z,14.81
2018-09-26T10:49:10.215Z,14.83
2018-09-26T10:50:10.527Z,14.89
2018-09-26T10:51:10.565Z,14.92
2018-09-26T10:52:10.159Z,14.94
2018-09-26T10:53:09.856Z,14.93
2018-09-26T10:54:10.109Z,14.91
2018-09-26T10:55:09.932Z,14.94
2018-09-26T10:56:10.590Z,14.79
2018-09-26T10:57:10.219Z,14.71
2018-09-26T10:58:10.123Z,14.74
2018-09-26T10:59:10.160Z,14.72
2018-09-26T11:00:10.305Z,14.7
2018-09-26T11:01:10.028Z,14.75
2018-09-26T11:02:12.068Z,14.75
2018-09-26T11:03:10.346Z,14.72
2018-09-26T11:04:10.567Z,14.77
2018-09-26T11:05:10.005Z,14.83
2018-09-26T11:06:10.046Z,14.94
2018-09-26T11:07:09.854Z,15.01
2018-09-26T11:08:10.623Z,15.11
2018-09-26T11:09:10.563Z,15.21
2018-09-26T11:10:10.416Z,15.29
2018-09-26T11:11:10.074Z,15.39
2018-09-26T11:12:10.288Z,15.45
2018-09-26T11:13:10.158Z,15.47
2018-09-26T11:14:10.329Z,15.55
2018-09-26T11:15:10.542Z,15.61
2018-09-26T11:16:10.505Z,15.7
2018-09-26T11:17:10.114Z,15.77
2018-09-26T11:18:09.933Z,15.88
2018-09-26T11:19:10.041Z,15.92
2018-09-26T11:20:10.323Z,15.93
2018-09-26T11:21:10.394Z,15.9
2018-09-26T11:22:10.745Z,15.76
2018-09-26T11:23:09.836Z,15.63
2018-09-26T11:24:09.956Z,15.66
2018-09-26T11:25:10.065Z,15.73
2018-09-26T11:26:10.825Z,15.79
2018-09-26T11:27:10.512Z,15.82
2018-09-26T11:28:10.653Z,15.86
2018-09-26T11:29:09.990Z,15.94
2018-09-26T11:30:10.304Z,15.92
2018-09-26T11:31:10.019Z,15.92
2018-09-26T11:32:10.442Z,15.95
2018-09-26T11:33:10.559Z,16
2018-09-26T11:34:10.387Z,16.05
2018-09-26T11:35:09.872Z,16.08
2018-09-26T11:36:10.115Z,16.07
2018-09-26T11:37:10.350Z,16.12
2018-09-26T11:38:10.457Z,16.17
2018-09-26T11:39:10.147Z,16.2
2018-09-26T11:40:10.432Z,16.25
2018-09-26T11:41:09.884Z,16.29
2018-09-26T11:42:09.806Z,16.26
2018-09-26T11:43:10.307Z,16.3
2018-09-26T11:44:10.383Z,16.32
2018-09-26T11:45:10.081Z,16.36
2018-09-26T11:46:10.319Z,16.39
2018-09-26T11:47:10.101Z,16.35
2018-09-26T11:48:09.816Z,16.32
2018-09-26T11:49:09.969Z,16.16
2018-09-26T11:50:10.512Z,16.14
2018-09-26T11:51:09.956Z,16.13
2018-09-26T11:52:10.381Z,16.19
2018-09-26T11:53:09.981Z,16.24
2018-09-26T11:54:10.416Z,16.31
2018-09-26T11:55:09.989Z,16.38
2018-09-26T11:56:10.411Z,16.42
2018-09-26T11:57:10.096Z,16.47
2018-09-26T11:58:10.326Z,16.52
2018-09-26T11:59:10.043Z,16.55
2018-09-26T12:00:09.909Z,16.59
2018-09-26T12:01:09.912Z,16.6
2018-09-26T12:02:10.866Z,16.54
2018-09-26T12:03:10.257Z,16.46
2018-09-26T12:04:10.334Z,16.41
2018-09-26T12:05:10.280Z,16.42
2018-09-26T12:06:10.247Z,16.43
2018-09-26T12:08:10.355Z,16.44
2018-09-26T12:09:09.957Z,16.44
2018-09-26T12:10:10.706Z,16.47
2018-09-26T12:11:10.057Z,16.49
2018-09-26T12:12:10.221Z,16.53
2018-09-26T12:13:10.266Z,16.55
2018-09-26T12:14:10.016Z,16.59
2018-09-26T12:15:10.139Z,16.61
2018-09-26T12:16:10.100Z,16.66
2018-09-26T12:17:09.815Z,16.65
2018-09-26T12:18:10.190Z,16.66
2018-09-26T12:19:10.379Z,16.71
2018-09-26T12:20:10.060Z,16.73
2018-09-26T12:21:09.828Z,16.74
2018-09-26T12:22:10.959Z,16.76
2018-09-26T12:23:09.853Z,16.77
2018-09-26T12:24:10.324Z,16.81
2018-09-26T12:25:10.347Z,16.85
2018-09-26T12:26:10.209Z,16.86
2018-09-26T12:27:10.189Z,16.92
2018-09-26T12:28:11.176Z,16.94
2018-09-26T12:29:09.901Z,16.99
2018-09-26T12:30:10.378Z,17
2018-09-26T12:31:09.986Z,17.03
2018-09-26T12:32:10.038Z,17.04
2018-09-26T12:33:10.073Z,17.07
2018-09-26T12:34:10.699Z,17.08
2018-09-26T12:35:09.893Z,17.08
2018-09-26T12:36:10.237Z,17.11
2018-09-26T12:37:09.702Z,17.1
2018-09-26T12:38:09.869Z,17.09
2018-09-26T12:39:09.758Z,17.1
2018-09-26T12:40:10.558Z,17.11
2018-09-26T12:41:09.961Z,17.16
2018-09-26T12:42:10.429Z,17.18
2018-09-26T12:43:13.234Z,17.18
2018-09-26T12:44:11.080Z,17.22
2018-09-26T12:45:10.042Z,17.22
2018-09-26T12:46:10.260Z,17.19
2018-09-26T12:47:10.258Z,17.21
2018-09-26T12:48:10.880Z,17.25
2018-09-26T12:49:09.738Z,17.26
2018-09-26T12:50:09.729Z,17.26
2018-09-26T12:51:09.885Z,17.2
2018-09-26T12:52:10.776Z,17.17
2018-09-26T12:53:09.904Z,17.19
2018-09-26T12:54:11.092Z,17.17
2018-09-26T12:55:10.182Z,17.17
2018-09-26T12:56:10.272Z,17.16
2018-09-26T12:57:10.094Z,17.12
2018-09-26T12:58:10.100Z,17.16
2018-09-26T12:59:11.161Z,17.16
2018-09-26T13:00:10.335Z,17.12
2018-09-26T13:01:09.886Z,17.13
2018-09-26T13:02:10.327Z,17.17
2018-09-26T13:03:10.082Z,17.18
2018-09-26T13:04:10.505Z,17.22
2018-09-26T13:05:09.978Z,17.23
2018-09-26T13:06:10.239Z,17.26
2018-09-26T13:07:09.804Z,17.28
2018-09-26T13:08:10.656Z,17.33
2018-09-26T13:09:10.089Z,17.36